createdAt,value
2019-04-24T00:02:12.541Z,10.70
2019-04-24T00:04:36.018Z,10.70
2019-04-24T00:09:46.009Z,10.60
2019-04-24T00:17:45.972Z,10.50
2019-04-24T00:20:25.506Z,10.50
2019-04-24T00:22:49.602Z,10.60
2019-04-24T00:25:16.119Z,10.50
2019-04-24T00:27:42.060Z,10.60
2019-04-24T00:30:20.403Z,10.60
2019-04-24T00:32:50.700Z,10.60
2019-04-24T00:37:58.936Z,10.60
2019-04-24T00:40:15.694Z,10.70
2019-04-24T00:42:59.151Z,10.70
2019-04-24T00:45:40.961Z,10.80
2019-04-24T00:48:06.124Z,10.80
2019-04-24T00:50:23.521Z,10.80
2019-04-24T00:55:24.798Z,10.80
2019-04-24T01:00:36.201Z,10.70
2019-04-24T01:03:20.262Z,10.70
2019-04-24T01:06:12.758Z,10.80
2019-04-24T01:08:28.524Z,10.70
2019-04-24T01:11:07.522Z,10.70
2019-04-24T01:14:05.153Z,10.70
2019-04-24T01:18:44.025Z,10.60
2019-04-24T01:23:56.741Z,10.60
2019-04-24T01:26:22.241Z,10.60
2019-04-24T01:31:34.193Z,10.50
2019-04-24T01:34:16.553Z,10.40
2019-04-24T01:44:47.237Z,10.50
2019-04-24T01:47:21.933Z,10.40
2019-04-24T01:50:00.065Z,10.40
2019-04-24T01:57:24.030Z,10.40
2019-04-24T01:59:51.059Z,10.40
2019-04-24T02:02:31.094Z,10.30
2019-04-24T02:07:47.584Z,10.40
2019-04-24T02:13:10.990Z,10.40
2019-04-24T02:15:30.514Z,10.30
2019-04-24T02:23:12.909Z,10.40
2019-04-24T02:28:07.355Z,10.30
2019-04-24T02:30:52.176Z,10.30
2019-04-24T02:36:32.434Z,10.30
2019-04-24T02:41:49.562Z,10.20
2019-04-24T02:44:24.995Z,10.20
2019-04-24T02:56:43.703Z,10.20
2019-04-24T02:59:26.709Z,10.20
2019-04-24T03:02:00.832Z,10.20
2019-04-24T03:04:28.677Z,10.20
2019-04-24T03:07:24.657Z,10.20
2019-04-24T03:10:07.902Z,10.30
2019-04-24T03:13:06.211Z,10.30
2019-04-24T03:17:38.223Z,10.20
2019-04-24T03:20:37.625Z,10.30
2019-04-24T03:22:48.893Z,10.30
2019-04-24T03:25:33.941Z,10.30
2019-04-24T03:33:27.826Z,10.30
2019-04-24T03:35:57.769Z,10.20
2019-04-24T03:46:01.230Z,10.20
2019-04-24T03:56:23.748Z,10.20
2019-04-24T03:59:10.796Z,10.20
2019-04-24T04:04:13.563Z,10.20
2019-04-24T04:06:58.890Z,10.20
2019-04-24T04:09:39.711Z,10.20
2019-04-24T04:12:10.810Z,10.20
2019-04-24T04:14:18.118Z,10.20
2019-04-24T04:19:28.807Z,10.20
2019-04-24T04:27:24.172Z,10.30
2019-04-24T04:32:47.266Z,10.20
2019-04-24T04:37:53.514Z,10.30
2019-04-24T04:40:28.625Z,10.30
2019-04-24T04:48:19.185Z,10.40
2019-04-24T04:51:00.502Z,10.30
2019-04-24T04:58:42.966Z,10.50
2019-04-24T05:01:19.969Z,10.50
2019-04-24T05:04:05.265Z,10.60
2019-04-24T05:07:06.935Z,10.70
2019-04-24T05:11:44.498Z,10.70
2019-04-24T05:16:53.274Z,10.80
2019-04-24T05:21:51.003Z,10.90
2019-04-24T05:27:11.759Z,11.10
2019-04-24T05:29:32.182Z,11.10
2019-04-24T05:31:54.669Z,11.10
2019-04-24T05:37:34.695Z,11.00
2019-04-24T05:39:58.909Z,11.10
2019-04-24T05:42:40.911Z,11.30
2019-04-24T05:44:52.781Z,11.30
2019-04-24T05:50:39.734Z,11.30
2019-04-24T05:58:28.280Z,11.60
2019-04-24T06:01:25.406Z,11.80
2019-04-24T06:07:06.235Z,12.00
2019-04-24T06:12:31.477Z,12.10
2019-04-24T06:22:49.670Z,12.60
2019-04-24T06:25:22.534Z,12.50
2019-04-24T06:27:52.584Z,12.70
2019-04-24T06:30:39.453Z,12.60
2019-04-24T06:32:37.453Z,12.60
2019-04-24T06:37:59.268Z,12.70
2019-04-24T06:40:58.836Z,12.60
2019-04-24T06:48:19.548Z,12.40
2019-04-24T06:53:19.365Z,12.00
2019-04-24T06:58:23.793Z,12.10
2019-04-24T07:04:37.956Z,11.90
2019-04-24T07:09:41.329Z,12.00
2019-04-24T07:14:58.873Z,12.10
2019-04-24T07:17:43.430Z,12.40
2019-04-24T07:20:16.062Z,12.40
2019-04-24T07:23:09.872Z,12.80
2019-04-24T07:26:04.104Z,12.80
2019-04-24T07:28:20.390Z,13.10
2019-04-24T07:31:21.458Z,13.10
2019-04-24T07:33:48.941Z,13.30
2019-04-24T07:36:36.939Z,13.80
2019-04-24T07:38:40.960Z,13.60
2019-04-24T07:41:33.801Z,13.60
2019-04-24T07:44:08.077Z,13.70
2019-04-24T07:46:35.404Z,13.80
2019-04-24T07:49:22.476Z,13.70
2019-04-24T07:54:34.443Z,14.00
2019-04-24T07:57:22.329Z,13.90
2019-04-24T08:00:11.296Z,13.70
2019-04-24T08:05:18.336Z,13.50
2019-04-24T08:15:59.869Z,13.80
2019-04-24T08:21:01.263Z,14.00
2019-04-24T08:26:04.272Z,14.10
2019-04-24T08:31:50.670Z,14.00
2019-04-24T08:34:36.407Z,14.10
2019-04-24T08:36:53.254Z,14.10
2019-04-24T08:39:39.230Z,14.40
2019-04-24T08:42:41.560Z,14.20
2019-04-24T08:45:04.289Z,14.20
2019-04-24T08:52:50.820Z,14.50
2019-04-24T08:55:11.861Z,14.70
2019-04-24T08:58:09.337Z,14.80
2019-04-24T09:00:25.897Z,14.70
2019-04-24T09:03:44.743Z,14.60
2019-04-24T09:06:01.161Z,14.90
2019-04-24T09:12:08.289Z,15.00
2019-04-24T09:16:59.667Z,15.20
2019-04-24T09:19:23.137Z,15.40
2019-04-24T09:21:58.772Z,15.40
2019-04-24T09:24:40.412Z,15.40
2019-04-24T09:27:28.444Z,15.30
2019-04-24T09:37:51.249Z,16.20
2019-04-24T09:43:20.731Z,16.40
2019-04-24T09:45:50.467Z,16.10
2019-04-24T09:48:19.837Z,15.80
2019-04-24T09:50:52.020Z,16.00
2019-04-24T09:56:06.490Z,16.30
2019-04-24T10:04:31.337Z,16.50
2019-04-24T10:07:12.036Z,16.20
2019-04-24T10:14:36.624Z,15.80
2019-04-24T10:20:05.836Z,15.50
2019-04-24T10:25:23.783Z,16.10
2019-04-24T10:28:13.732Z,16.30
2019-04-24T10:30:50.608Z,16.20
2019-04-24T10:33:40.358Z,16.30
2019-04-24T10:39:39.255Z,16.80
2019-04-24T10:44:48.035Z,17.20
2019-04-24T10:47:53.797Z,17.00
2019-04-24T10:50:19.620Z,16.70
2019-04-24T10:53:20.820Z,16.90
2019-04-24T10:55:55.473Z,16.80
2019-04-24T11:00:58.721Z,16.20
2019-04-24T11:04:00.917Z,16.10
2019-04-24T11:06:22.801Z,16.60
2019-04-24T11:09:08.918Z,16.70
2019-04-24T11:11:53.785Z,16.40
2019-04-24T11:14:17.201Z,16.30
2019-04-24T11:20:17.920Z,16.50
2019-04-24T11:23:11.746Z,16.60
2019-04-24T11:28:36.710Z,16.40
2019-04-24T11:31:17.796Z,16.40
2019-04-24T11:34:09.832Z,16.50
2019-04-24T11:36:44.807Z,16.80
2019-04-24T11:41:47.822Z,16.60
2019-04-24T11:44:12.482Z,16.20
2019-04-24T11:49:48.393Z,16.40
2019-04-24T11:53:03.641Z,16.50
2019-04-24T11:58:03.174Z,16.80
2019-04-24T12:00:03.936Z,16.50
2019-04-24T12:08:12.817Z,16.80
2019-04-24T12:10:55.865Z,16.80
2019-04-24T12:13:32.212Z,16.90
2019-04-24T12:16:23.334Z,17.00
2019-04-24T12:21:42.161Z,17.10
2019-04-24T12:26:44.347Z,17.30
2019-04-24T12:29:06.749Z,17.50
2019-04-24T12:32:06.501Z,17.70
2019-04-24T12:34:43.505Z,17.70
2019-04-24T12:37:24.308Z,17.70
2019-04-24T12:42:27.447Z,17.90
2019-04-24T12:44:46.363Z,18.00
2019-04-24T12:47:29.383Z,18.10
2019-04-24T12:52:37.384Z,18.30
2019-04-24T12:57:58.422Z,18.90
2019-04-24T13:03:37.050Z,19.00
2019-04-24T13:08:46.975Z,19.20
2019-04-24T13:11:07.850Z,19.20
2019-04-24T13:16:56.937Z,18.60
2019-04-24T13:19:17.456Z,18.70
2019-04-24T13:21:28.639Z,18.70
2019-04-24T13:24:04.769Z,18.90
2019-04-24T13:27:14.398Z,19.20
2019-04-24T13:29:49.215Z,19.40
2019-04-24T13:32:36.849Z,19.60
2019-04-24T13:35:22.483Z,19.50
2019-04-24T13:38:08.346Z,19.30
2019-04-24T13:40:01.188Z,19.40
2019-04-24T13:42:48.151Z,19.60
2019-04-24T13:45:16.535Z,19.60
2019-04-24T13:50:30.613Z,19.20
2019-04-24T13:55:28.203Z,19.30
2019-04-24T14:01:22.666Z,19.80
2019-04-24T14:11:28.848Z,19.20
2019-04-24T14:12:20.205Z,19.30
2019-04-24T14:13:38.190Z,19.10
2019-04-24T14:16:16.871Z,19.10
2019-04-24T14:18:35.340Z,19.30
2019-04-24T14:21:11.424Z,19.30
2019-04-24T14:23:46.986Z,19.40
2019-04-24T14:31:17.512Z,19.60
2019-04-24T14:33:51.883Z,19.80
2019-04-24T14:36:25.298Z,20.00
2019-04-24T14:41:20.563Z,19.90
2019-04-24T14:44:26.570Z,20.10
2019-04-24T14:51:47.980Z,19.80
2019-04-24T14:56:53.315Z,19.60
2019-04-24T15:02:02.886Z,19.30
2019-04-24T15:04:18.994Z,19.50
2019-04-24T15:07:14.815Z,19.60
2019-04-24T15:12:10.765Z,19.90
2019-04-24T15:14:40.939Z,20.00
2019-04-24T15:20:09.112Z,19.90
2019-04-24T15:22:28.316Z,19.50
2019-04-24T15:25:16.973Z,19.40
2019-04-24T15:27:36.841Z,19.30
2019-04-24T15:35:15.361Z,19.30
2019-04-24T15:37:47.594Z,19.40
2019-04-24T15:42:47.725Z,19.30
2019-04-24T15:45:05.561Z,19.20
2019-04-24T15:50:18.462Z,19.20
2019-04-24T15:52:12.943Z,19.10
2019-04-24T15:54:42.513Z,19.20
2019-04-24T15:57:12.230Z,19.30
2019-04-24T16:00:06.779Z,19.30
2019-04-24T16:02:54.107Z,19.30
2019-04-24T16:04:54.494Z,19.40
2019-04-24T16:07:41.112Z,19.30
2019-04-24T16:10:22.331Z,19.50
2019-04-24T16:12:51.773Z,19.50
2019-04-24T16:16:03.245Z,19.40
2019-04-24T16:20:58.724Z,19.50
2019-04-24T16:23:49.731Z,19.50
2019-04-24T16:28:29.218Z,19.70
2019-04-24T16:31:05.059Z,19.80
2019-04-24T16:38:40.257Z,19.80
2019-04-24T16:44:16.007Z,19.90
2019-04-24T16:46:49.909Z,19.90
2019-04-24T16:49:53.740Z,19.90
2019-04-24T16:52:20.476Z,20.00
2019-04-24T16:54:21.627Z,19.60
2019-04-24T16:59:17.981Z,19.40
2019-04-24T17:02:03.693Z,19.30
2019-04-24T17:04:53.811Z,19.20
2019-04-24T17:09:49.678Z,19.10
2019-04-24T17:12:13.547Z,19.00
2019-04-24T17:14:51.113Z,19.10
2019-04-24T17:17:55.204Z,19.10
2019-04-24T17:22:58.281Z,19.20
2019-04-24T17:25:20.860Z,19.00
2019-04-24T17:28:01.003Z,19.00
2019-04-24T17:30:28.722Z,18.90
2019-04-24T17:32:53.052Z,19.00
2019-04-24T17:35:45.103Z,18.80
2019-04-24T17:37:28.215Z,18.70
2019-04-24T17:40:09.271Z,18.70
2019-04-24T17:42:59.886Z,18.70
2019-04-24T17:48:18.626Z,18.70
2019-04-24T17:51:04.318Z,18.60
2019-04-24T17:53:27.789Z,18.60
2019-04-24T17:56:00.093Z,18.60
2019-04-24T18:00:52.363Z,18.40
2019-04-24T18:03:22.441Z,18.40
2019-04-24T18:05:51.972Z,18.30
2019-04-24T18:08:22.198Z,18.20
2019-04-24T18:10:51.694Z,18.20
2019-04-24T18:13:22.052Z,18.10
2019-04-24T18:15:52.271Z,18.00
2019-04-24T18:18:22.166Z,17.90
2019-04-24T18:20:52.997Z,17.90
2019-04-24T18:23:22.709Z,17.80
2019-04-24T18:26:20.218Z,17.70
2019-04-24T18:28:49.625Z,17.60
2019-04-24T18:31:19.394Z,17.60
2019-04-24T18:33:49.145Z,17.50
2019-04-24T18:36:19.115Z,17.40
2019-04-24T18:38:49.203Z,17.30
2019-04-24T18:41:18.733Z,17.30
2019-04-24T18:43:48.179Z,17.20
2019-04-24T18:46:17.978Z,17.10
2019-04-24T18:48:48.049Z,17.00
2019-04-24T18:51:17.902Z,17.00
2019-04-24T18:53:47.407Z,17.00
2019-04-24T18:56:17.461Z,16.90
2019-04-24T18:58:47.748Z,16.90
2019-04-24T19:01:17.731Z,16.90
2019-04-24T19:03:47.173Z,16.80
2019-04-24T19:06:28.052Z,16.70
2019-04-24T19:08:48.476Z,16.70
2019-04-24T19:11:18.571Z,16.70
2019-04-24T19:13:51.065Z,16.60
2019-04-24T19:16:20.025Z,16.60
2019-04-24T19:18:50.877Z,16.60
2019-04-24T19:21:24.198Z,16.50
2019-04-24T19:23:54.113Z,16.60
2019-04-24T19:26:26.543Z,16.60
2019-04-24T19:28:56.471Z,16.60
2019-04-24T19:31:26.393Z,16.50
2019-04-24T19:33:57.646Z,16.40
2019-04-24T19:36:27.247Z,16.40
2019-04-24T19:39:04.454Z,16.40
2019-04-24T19:41:36.578Z,16.40
2019-04-24T19:44:06.340Z,16.30
2019-04-24T19:46:37.168Z,16.30
2019-04-24T19:49:08.878Z,16.20
2019-04-24T19:51:38.397Z,16.10
2019-04-24T19:54:08.281Z,16.10
2019-04-24T19:56:38.191Z,16.00
2019-04-24T19:59:08.149Z,15.90
2019-04-24T20:01:37.883Z,15.90
2019-04-24T20:04:07.890Z,15.80
2019-04-24T20:06:37.367Z,15.80
2019-04-24T20:09:11.589Z,15.70
2019-04-24T20:11:46.190Z,15.70
2019-04-24T20:14:15.705Z,15.70
2019-04-24T20:16:45.524Z,15.60
2019-04-24T20:19:17.680Z,15.60
2019-04-24T20:21:46.045Z,15.60
2019-04-24T20:24:15.463Z,15.50
2019-04-24T20:26:44.891Z,15.40
2019-04-24T20:29:14.349Z,15.40
2019-04-24T20:31:43.777Z,15.40
2019-04-24T20:34:14.476Z,15.40
2019-04-24T20:36:44.291Z,15.30
2019-04-24T20:39:15.145Z,15.30
2019-04-24T20:41:45.126Z,15.40
2019-04-24T20:44:15.800Z,15.50
2019-04-24T20:46:45.227Z,15.60
2019-04-24T20:49:14.773Z,15.70
2019-04-24T20:51:44.269Z,15.90
2019-04-24T20:54:13.695Z,16.00
2019-04-24T20:56:43.428Z,16.00
2019-04-24T20:59:12.908Z,16.00
